Time;durP1;ratioP1;P1;durP2;ratioP2;P2;SDS_P1;SDS_P2;PMS_P1;PMS_P2;Temp;Humidity;BMP_temperature;BMP_pressure;BME280_temperature;BME280_humidity;BME280_pressure;Samples;Min_cycle;Max_cycle;Signal;HPM_P1;HPM_P2
2022/04/03 00:01:35;;;;;;;10.50;5.22;;;-0.60;92.00;;;;;;5052633;28;20051;-33
2022/04/03 00:04:02;;;;;;;15.10;6.75;;;-0.60;92.00;;;;;;5035053;28;20053;-33
2022/04/03 00:06:29;;;;;;;13.68;6.40;;;-0.60;92.20;;;;;;5046141;28;20048;-33
2022/04/03 00:08:56;;;;;;;14.13;5.50;;;-0.70;92.40;;;;;;5048427;28;20079;-34
2022/04/03 00:11:28;;;;;;;13.32;5.68;;;-0.70;92.50;;;;;;5035438;28;20045;-34
2022/04/03 00:13:56;;;;;;;9.93;4.32;;;-0.70;92.60;;;;;;5047625;28;20057;-34
2022/04/03 00:16:22;;;;;;;9.60;4.70;;;-0.70;92.60;;;;;;5036604;28;20057;-34
2022/04/03 00:18:49;;;;;;;7.82;4.03;;;-0.80;92.50;;;;;;5039200;28;20053;-33
2022/04/03 00:21:16;;;;;;;8.48;3.95;;;-0.70;92.50;;;;;;5039792;28;20052;-34
2022/04/03 00:23:47;;;;;;;7.55;3.30;;;-0.70;92.50;;;;;;5047581;28;20128;-34
2022/04/03 00:26:14;;;;;;;8.45;3.80;;;-0.70;92.60;;;;;;5034615;28;20075;-34
2022/04/03 00:28:40;;;;;;;6.13;3.00;;;-0.70;92.70;;;;;;5051442;28;20053;-34
2022/04/03 00:31:08;;;;;;;5.43;3.35;;;-0.70;92.90;;;;;;5047176;28;20063;-32
2022/04/03 00:33:35;;;;;;;7.75;3.80;;;-0.70;93.00;;;;;;5049505;28;20094;-33
2022/04/03 00:36:02;;;;;;;6.22;3.50;;;-0.70;92.90;;;;;;5050528;28;20060;-33
2022/04/03 00:38:29;;;;;;;4.95;3.03;;;-0.70;92.90;;;;;;5052334;28;20045;-33
2022/04/03 00:40:56;;;;;;;4.03;2.50;;;-0.70;92.90;;;;;;5051898;28;20382;-33
2022/04/03 00:43:23;;;;;;;5.65;2.97;;;-0.70;93.00;;;;;;5050628;28;20073;-33
2022/04/03 00:45:50;;;;;;;5.78;3.17;;;-0.70;93.10;;;;;;5042137;28;20552;-33
2022/04/03 00:48:18;;;;;;;6.97;3.22;;;-0.70;93.10;;;;;;5041865;28;20133;-34
2022/04/03 00:50:44;;;;;;;5.18;3.22;;;-0.70;93.10;;;;;;5035023;28;20045;-34
2022/04/03 00:53:11;;;;;;;6.75;3.85;;;-0.70;93.30;;;;;;5035890;28;20063;-33
2022/04/03 00:55:40;;;;;;;5.30;3.10;;;-0.70;93.40;;;;;;5043184;28;20632;-34
2022/04/03 00:58:07;;;;;;;8.00;3.35;;;-0.70;93.30;;;;;;5050322;28;20481;-34
2022/04/03 01:00:34;;;;;;;6.68;3.35;;;-0.70;93.20;;;;;;5049832;28;20044;-32
2022/04/03 01:03:02;;;;;;;6.53;3.47;;;-0.70;93.30;;;;;;5048323;28;20061;-33
2022/04/03 01:05:30;;;;;;;5.65;3.50;;;-0.70;93.50;;;;;;5054534;28;20045;-33
2022/04/03 01:07:57;;;;;;;5.47;3.25;;;-0.70;93.70;;;;;;5052090;28;20485;-34
2022/04/03 01:10:23;;;;;;;12.60;3.60;;;-0.70;93.70;;;;;;5055525;28;20055;-34
2022/04/03 01:12:50;;;;;;;5.20;3.58;;;-0.60;93.70;;;;;;5036664;28;20149;-34
2022/04/03 01:15:17;;;;;;;5.18;3.25;;;-0.70;93.70;;;;;;5036620;28;20053;-33
2022/04/03 01:17:44;;;;;;;7.95;3.25;;;-0.70;93.80;;;;;;5050870;28;20481;-33
2022/04/03 01:20:11;;;;;;;6.13;3.47;;;-0.70;93.80;;;;;;5051445;28;20497;-34
2022/04/03 01:22:39;;;;;;;6.10;3.28;;;-0.70;93.80;;;;;;5039533;28;20045;-34
2022/04/03 01:25:09;;;;;;;9.60;3.33;;;-0.70;93.90;;;;;;5050543;28;20132;-33
2022/04/03 01:27:36;;;;;;;7.65;3.65;;;-0.70;93.90;;;;;;5035241;28;20481;-34
2022/04/03 01:30:03;;;;;;;5.97;3.70;;;-0.70;94.00;;;;;;5048261;28;20397;-34
2022/04/03 01:32:29;;;;;;;6.07;3.45;;;-0.60;94.40;;;;;;5048665;28;20041;-32
2022/04/03 01:34:56;;;;;;;7.63;4.10;;;-0.60;94.50;;;;;;5042474;28;20045;-33
2022/04/03 01:37:26;;;;;;;6.90;3.15;;;-0.60;94.50;;;;;;5054740;28;20144;-34
2022/04/03 01:39:52;;;;;;;6.03;3.13;;;-0.50;94.60;;;;;;5048341;28;20044;-33
2022/04/03 01:42:20;;;;;;;6.55;3.33;;;-0.50;94.80;;;;;;5054017;28;20053;-33
2022/04/03 01:44:47;;;;;;;10.65;3.80;;;-0.50;94.90;;;;;;5054990;28;20053;-33
2022/04/03 01:47:14;;;;;;;8.50;3.90;;;-0.50;95.10;;;;;;5053834;28;20047;-33
2022/04/03 01:49:40;;;;;;;5.03;3.60;;;-0.50;95.30;;;;;;5049464;28;20127;-33
2022/04/03 01:52:08;;;;;;;9.63;3.65;;;-0.40;95.40;;;;;;5052207;28;20049;-33
2022/04/03 01:54:34;;;;;;;9.63;3.65;;;-0.40;95.80;;;;;;5043203;28;20389;-33
2022/04/03 01:57:01;;;;;;;7.05;3.50;;;-0.40;95.90;;;;;;5036093;28;20061;-33
2022/04/03 01:59:29;;;;;;;5.63;3.45;;;-0.40;96.10;;;;;;5036569;28;20048;-34
2022/04/03 02:01:56;;;;;;;5.82;3.78;;;-0.40;96.00;;;;;;5066724;28;20396;-34
2022/04/03 02:04:23;;;;;;;6.63;3.70;;;-0.40;96.10;;;;;;5051152;28;20041;-33
2022/04/03 02:06:51;;;;;;;5.95;3.25;;;-0.40;96.10;;;;;;5053505;28;20044;-34
2022/04/03 02:09:18;;;;;;;8.60;3.90;;;-0.40;95.90;;;;;;5055010;28;20114;-33
2022/04/03 02:11:45;;;;;;;6.97;3.10;;;-0.40;96.00;;;;;;5054188;28;20071;-33
2022/04/03 02:14:11;;;;;;;5.88;3.60;;;-0.40;96.10;;;;;;5053720;28;20037;-34
2022/04/03 02:16:39;;;;;;;6.18;3.67;;;-0.30;96.10;;;;;;5051817;28;20060;-34
2022/04/03 02:19:06;;;;;;;7.03;3.80;;;-0.30;96.00;;;;;;5053994;28;20053;-34
2022/04/03 02:21:33;;;;;;;10.35;4.65;;;-0.30;96.10;;;;;;5048128;28;20049;-33
2022/04/03 02:23:59;;;;;;;7.10;4.03;;;-0.30;96.00;;;;;;5035244;28;20080;-33
2022/04/03 02:26:26;;;;;;;5.60;2.97;;;-0.30;96.10;;;;;;5039743;28;20392;-34
2022/04/03 02:28:53;;;;;;;7.05;3.08;;;-0.40;96.00;;;;;;5054367;28;20148;-33
2022/04/03 02:31:20;;;;;;;6.75;3.90;;;-0.30;96.00;;;;;;5044780;28;20056;-33
2022/04/03 02:33:48;;;;;;;6.03;3.85;;;-0.30;96.10;;;;;;5047396;28;20045;-33
2022/04/03 02:36:15;;;;;;;5.43;3.50;;;-0.30;96.10;;;;;;5053656;28;20051;-33
2022/04/03 02:38:41;;;;;;;6.95;3.40;;;-0.40;96.00;;;;;;5053074;28;20053;-34
2022/04/03 02:41:08;;;;;;;6.55;3.72;;;-0.40;96.00;;;;;;5036929;28;20083;-33
2022/04/03 02:43:35;;;;;;;9.73;3.63;;;-0.40;96.20;;;;;;5049293;28;20073;-33
2022/04/03 02:46:01;;;;;;;6.10;3.00;;;-0.40;96.20;;;;;;5045116;28;20052;-33
2022/04/03 02:48:28;;;;;;;6.57;3.63;;;-0.50;96.10;;;;;;5038420;28;20375;-33
2022/04/03 02:50:56;;;;;;;7.95;3.22;;;-0.40;96.20;;;;;;5050624;28;20063;-33
2022/04/03 02:53:23;;;;;;;7.38;3.30;;;-0.40;96.30;;;;;;5043625;28;20055;-33
2022/04/03 02:55:49;;;;;;;6.40;3.65;;;-0.50;96.30;;;;;;5040019;28;20059;-32
2022/04/03 02:58:16;;;;;;;7.38;3.60;;;-0.50;96.20;;;;;;5034739;28;20092;-34
2022/04/03 03:00:43;;;;;;;5.70;3.60;;;-0.50;96.30;;;;;;5047600;28;20045;-34
2022/04/03 03:03:10;;;;;;;6.55;3.88;;;-0.50;96.40;;;;;;5053675;28;20136;-33
2022/04/03 03:05:37;;;;;;;8.10;4.00;;;-0.60;96.50;;;;;;5051696;28;20401;-34
2022/04/03 03:08:05;;;;;;;6.43;3.92;;;-0.60;96.50;;;;;;5052495;28;20056;-34
2022/04/03 03:10:32;;;;;;;10.55;4.20;;;-0.60;96.60;;;;;;5052036;28;20049;-34
2022/04/03 03:12:58;;;;;;;5.10;3.45;;;-0.60;96.80;;;;;;5050404;28;20053;-34
2022/04/03 03:15:25;;;;;;;9.93;4.78;;;-0.60;97.20;;;;;;5045339;28;20055;-32
2022/04/03 03:17:52;;;;;;;6.57;3.55;;;-0.60;97.30;;;;;;5034239;28;20088;-34
2022/04/03 03:20:19;;;;;;;8.10;3.63;;;-0.60;97.40;;;;;;5039193;28;20504;-34
2022/04/03 03:22:46;;;;;;;7.57;4.10;;;-0.60;97.40;;;;;;5048347;28;20041;-34
2022/04/03 03:25:14;;;;;;;8.07;4.38;;;-0.60;97.30;;;;;;5037373;28;20044;-34
2022/04/03 03:27:41;;;;;;;5.78;4.35;;;-0.60;97.40;;;;;;5041753;28;20048;-34
2022/04/03 03:30:09;;;;;;;15.10;3.85;;;-0.50;97.50;;;;;;5052498;28;20067;-33
2022/04/03 03:32:36;;;;;;;8.48;4.40;;;-0.50;97.70;;;;;;5053248;28;20057;-34
2022/04/03 03:35:03;;;;;;;7.63;4.20;;;-0.50;97.80;;;;;;5050882;28;20515;-33
2022/04/03 03:37:30;;;;;;;6.38;4.15;;;-0.50;98.30;;;;;;5038634;28;20057;-33
2022/04/03 03:39:57;;;;;;;8.25;4.28;;;-0.40;98.70;;;;;;5036107;28;20119;-33
2022/04/03 03:42:25;;;;;;;9.30;4.93;;;-0.40;98.70;;;;;;5037770;28;20098;-34
2022/04/03 03:44:52;;;;;;;9.07;4.60;;;-0.30;99.10;;;;;;5041379;28;20056;-34
2022/04/03 03:47:19;;;;;;;6.63;3.97;;;-0.30;99.10;;;;;;5033462;28;20365;-34
2022/04/03 03:49:46;;;;;;;7.82;4.57;;;-0.20;99.20;;;;;;5041443;28;20052;-34
2022/04/03 03:52:13;;;;;;;5.47;3.90;;;-0.20;99.30;;;;;;5041119;28;20502;-34
2022/04/03 03:54:40;;;;;;;7.88;4.47;;;-0.20;99.40;;;;;;5046560;28;20094;-33
2022/04/03 03:57:07;;;;;;;5.45;4.60;;;-0.10;99.40;;;;;;5041832;28;20079;-33
2022/04/03 03:59:35;;;;;;;6.97;4.20;;;-0.10;99.70;;;;;;5039801;28;20048;-33
2022/04/03 04:02:02;;;;;;;7.55;3.90;;;-0.10;99.90;;;;;;5052034;28;20127;-33
2022/04/03 04:04:29;;;;;;;8.80;4.25;;;0.00;99.80;;;;;;5036470;28;20382;-34
2022/04/03 04:06:56;;;;;;;6.88;4.03;;;0.00;99.70;;;;;;5050240;28;20072;-33
2022/04/03 04:09:23;;;;;;;6.43;3.80;;;0.00;99.90;;;;;;5041449;28;20055;-33
2022/04/03 04:11:50;;;;;;;7.68;3.97;;;0.10;99.90;;;;;;5047190;28;20445;-34
2022/04/03 04:14:16;;;;;;;7.45;4.35;;;0.20;99.90;;;;;;5032994;28;20056;-34
2022/04/03 04:16:46;;;;;;;6.68;4.22;;;0.20;99.90;;;;;;5049700;28;20052;-34
2022/04/03 04:19:13;;;;;;;7.68;3.95;;;0.20;99.90;;;;;;5045947;28;20049;-33
2022/04/03 04:21:39;;;;;;;7.53;4.80;;;0.20;99.90;;;;;;5040214;28;20045;-33
2022/04/03 04:24:07;;;;;;;9.77;3.85;;;0.30;99.90;;;;;;5041337;28;20408;-34
2022/04/03 04:26:33;;;;;;;8.02;4.40;;;0.30;99.90;;;;;;5044741;28;20057;-33
2022/04/03 04:29:01;;;;;;;6.25;4.30;;;0.30;99.90;;;;;;5039225;28;20060;-33
2022/04/03 04:31:27;;;;;;;7.43;4.05;;;0.40;99.90;;;;;;5046003;28;20041;-33
2022/04/03 04:33:55;;;;;;;7.75;4.28;;;0.40;99.90;;;;;;5035310;28;20064;-33
2022/04/03 04:36:22;;;;;;;7.03;3.88;;;0.40;99.90;;;;;;5052179;28;20045;-33
2022/04/03 04:38:49;;;;;;;5.43;3.53;;;0.50;99.90;;;;;;5046197;28;20049;-33
2022/04/03 04:41:15;;;;;;;7.25;4.35;;;0.50;99.90;;;;;;5051554;28;20041;-34
2022/04/03 04:43:42;;;;;;;8.20;4.57;;;0.60;99.90;;;;;;5055588;28;20057;-33
2022/04/03 04:46:09;;;;;;;7.18;4.50;;;0.50;99.90;;;;;;5056243;28;20136;-33
2022/04/03 04:48:36;;;;;;;7.05;4.43;;;0.50;99.90;;;;;;5046283;28;20084;-33
2022/04/03 04:51:05;;;;;;;7.82;4.15;;;0.50;99.90;;;;;;5041494;28;20059;-34
2022/04/03 04:53:31;;;;;;;7.93;4.15;;;0.50;99.90;;;;;;5042992;28;20395;-33
2022/04/03 04:55:58;;;;;;;5.78;3.63;;;0.40;99.90;;;;;;5056105;28;20059;-34
2022/04/03 04:58:26;;;;;;;7.88;3.83;;;0.40;99.90;;;;;;5037731;28;20412;-33
2022/04/03 05:00:53;;;;;;;8.70;4.07;;;0.40;99.90;;;;;;5053932;28;20057;-34
2022/04/03 05:03:20;;;;;;;8.05;4.10;;;0.40;99.90;;;;;;5051807;28;20049;-34
2022/04/03 05:05:47;;;;;;;11.38;4.50;;;0.40;99.90;;;;;;5051305;28;20049;-33
2022/04/03 05:08:15;;;;;;;6.18;3.70;;;0.30;99.90;;;;;;5036576;28;20053;-33
2022/04/03 05:10:41;;;;;;;7.90;4.50;;;0.30;99.90;;;;;;5048922;28;20060;-34
2022/04/03 05:13:09;;;;;;;8.75;4.70;;;0.30;99.90;;;;;;5055248;28;20408;-33
2022/04/03 05:15:36;;;;;;;6.78;4.22;;;0.20;99.90;;;;;;5053307;28;20052;-34
2022/04/03 05:18:03;;;;;;;8.43;3.97;;;0.20;99.90;;;;;;5054680;28;20048;-33
2022/04/03 05:20:29;;;;;;;6.63;3.80;;;0.20;99.90;;;;;;5054020;28;20056;-33
2022/04/03 05:22:56;;;;;;;7.28;4.07;;;0.10;99.90;;;;;;5054573;28;20408;-34
2022/04/03 05:25:24;;;;;;;6.88;4.00;;;0.10;99.90;;;;;;5052908;28;20456;-34
2022/04/03 05:27:51;;;;;;;7.13;3.97;;;0.00;99.90;;;;;;5053951;28;20497;-34
2022/04/03 05:30:17;;;;;;;6.25;3.33;;;0.10;99.90;;;;;;5052818;28;20124;-34
2022/04/03 05:32:44;;;;;;;4.72;3.38;;;0.10;99.90;;;;;;5054124;28;20037;-34
2022/04/03 05:35:13;;;;;;;7.68;3.70;;;0.00;99.90;;;;;;5037776;28;20064;-34
2022/04/03 05:37:39;;;;;;;6.97;3.67;;;0.00;99.90;;;;;;5048504;28;20112;-34
2022/04/03 05:40:10;;;;;;;5.40;3.58;;;0.00;99.90;;;;;;5052613;28;20048;-34
2022/04/03 05:42:38;;;;;;;5.35;3.42;;;0.00;99.90;;;;;;5053826;28;20128;-34
2022/04/03 05:45:05;;;;;;;7.30;3.60;;;0.00;99.90;;;;;;5055154;28;20045;-34
2022/04/03 05:47:32;;;;;;;5.53;3.53;;;0.00;99.90;;;;;;5054817;28;20065;-34
2022/04/03 05:49:59;;;;;;;5.40;3.50;;;-0.10;99.90;;;;;;5051778;28;20068;-34
2022/04/03 05:52:26;;;;;;;5.50;3.05;;;-0.10;99.90;;;;;;5048847;28;20049;-34
2022/04/03 05:54:53;;;;;;;6.82;3.58;;;-0.10;99.90;;;;;;5040874;28;20085;-33
2022/04/03 05:57:19;;;;;;;4.57;3.40;;;-0.10;99.90;;;;;;5035587;28;20494;-33
2022/04/03 05:59:47;;;;;;;6.97;4.05;;;-0.10;99.90;;;;;;5046639;28;20148;-34
2022/04/03 06:02:14;;;;;;;6.25;3.50;;;0.00;99.90;;;;;;5053209;28;20405;-33
2022/04/03 06:04:41;;;;;;;4.50;3.30;;;0.00;99.90;;;;;;5040245;28;20055;-33
2022/04/03 06:07:08;;;;;;;7.18;3.10;;;0.00;99.90;;;;;;5042797;28;20142;-33
2022/04/03 06:09:35;;;;;;;6.63;3.60;;;0.10;99.90;;;;;;5056537;28;20111;-33
2022/04/03 06:12:02;;;;;;;4.68;3.40;;;0.10;99.90;;;;;;5052828;28;20057;-33
2022/04/03 06:14:28;;;;;;;5.18;3.03;;;0.20;99.90;;;;;;5051608;28;20129;-33
2022/04/03 06:16:56;;;;;;;8.10;3.85;;;0.20;99.90;;;;;;5052664;28;20119;-34
2022/04/03 06:19:23;;;;;;;7.47;3.88;;;0.30;99.90;;;;;;5050335;28;20084;-34
2022/04/03 06:21:50;;;;;;;6.72;2.92;;;0.40;99.90;;;;;;5053510;28;20065;-34
2022/04/03 06:24:16;;;;;;;4.20;3.03;;;0.50;99.90;;;;;;5053763;28;20408;-34
2022/04/03 06:26:43;;;;;;;7.85;3.65;;;0.60;99.90;;;;;;5035503;28;20137;-33
2022/04/03 06:29:10;;;;;;;10.07;3.97;;;0.70;99.90;;;;;;5046892;28;20081;-33
2022/04/03 06:31:36;;;;;;;5.35;3.70;;;0.90;99.90;;;;;;5051757;28;20384;-34
2022/04/03 06:34:04;;;;;;;7.55;3.55;;;0.90;99.90;;;;;;5040108;28;20053;-33
2022/04/03 06:36:31;;;;;;;6.38;3.17;;;1.00;99.90;;;;;;5051681;28;20079;-34
2022/04/03 06:38:58;;;;;;;7.20;3.42;;;1.00;99.90;;;;;;5051829;28;20058;-33
2022/04/03 06:41:24;;;;;;;5.80;2.95;;;1.00;99.90;;;;;;5053954;28;20056;-33
2022/04/03 06:43:51;;;;;;;4.40;2.65;;;1.10;99.90;;;;;;5049311;28;20500;-33
2022/04/03 06:46:18;;;;;;;4.72;2.58;;;1.10;99.90;;;;;;5044987;28;20060;-33
2022/04/03 06:48:45;;;;;;;6.85;3.60;;;1.20;99.90;;;;;;5048911;28;20490;-33
2022/04/03 06:51:13;;;;;;;6.10;3.67;;;1.20;99.90;;;;;;5035148;28;20081;-34
2022/04/03 06:53:39;;;;;;;9.35;3.63;;;1.30;99.90;;;;;;5037247;28;20046;-34
2022/04/03 06:56:06;;;;;;;4.10;3.10;;;1.60;99.90;;;;;;5038266;28;20140;-34
2022/04/03 06:58:33;;;;;;;6.80;3.15;;;1.70;99.90;;;;;;5042396;28;20123;-35
2022/04/03 07:00:59;;;;;;;10.05;3.72;;;1.90;99.90;;;;;;5049714;28;20094;-34
2022/04/03 07:03:26;;;;;;;4.97;2.92;;;2.10;99.90;;;;;;5035775;28;20140;-33
2022/04/03 07:05:53;;;;;;;9.65;2.90;;;2.30;99.90;;;;;;5050573;28;20045;-33
2022/04/03 07:08:21;;;;;;;9.65;2.97;;;2.40;99.90;;;;;;5050828;28;20052;-34
2022/04/03 07:10:49;;;;;;;5.10;2.90;;;2.50;99.90;;;;;;5045747;28;20061;-34
2022/04/03 07:13:15;;;;;;;8.13;3.10;;;2.70;99.90;;;;;;5052540;28;20378;-34
2022/04/03 07:15:43;;;;;;;6.15;2.90;;;2.90;99.90;;;;;;5051200;28;20052;-34
2022/04/03 07:18:10;;;;;;;6.65;3.05;;;3.00;99.90;;;;;;5053358;28;20044;-34
2022/04/03 07:20:36;;;;;;;5.93;2.45;;;3.10;99.90;;;;;;5053154;28;20049;-34
2022/04/03 07:23:03;;;;;;;5.30;2.58;;;3.20;99.90;;;;;;5051517;28;20548;-34
2022/04/03 07:25:32;;;;;;;6.55;2.63;;;3.40;99.90;;;;;;5049349;28;20052;-34
2022/04/03 07:27:59;;;;;;;5.85;2.13;;;3.60;99.90;;;;;;5053529;28;20067;-34
2022/04/03 07:30:25;;;;;;;4.95;1.90;;;3.80;99.90;;;;;;5060820;28;20144;-34
2022/04/03 07:32:52;;;;;;;5.40;2.20;;;4.00;99.90;;;;;;5053763;28;20459;-34
2022/04/03 07:35:19;;;;;;;4.35;2.22;;;4.20;99.90;;;;;;5053746;28;20053;-35
2022/04/03 07:37:45;;;;;;;7.03;2.53;;;4.30;99.90;;;;;;5054062;28;20057;-34
2022/04/03 07:40:13;;;;;;;8.88;3.88;;;4.50;99.90;;;;;;5051692;28;20052;-34
2022/04/03 07:42:41;;;;;;;5.72;3.00;;;4.70;99.90;;;;;;5048659;28;20059;-44
2022/04/03 07:45:11;;;;;;;7.57;2.58;;;4.80;99.90;;;;;;5052668;28;20084;-44
2022/04/03 07:47:47;;;;;;;5.97;2.10;;;5.00;99.90;;;;;;5052020;28;20087;-44
2022/04/03 07:50:14;;;;;;;5.43;2.05;;;5.20;99.90;;;;;;5043549;28;20059;-44
2022/04/03 07:52:41;;;;;;;9.93;1.52;;;5.40;99.90;;;;;;5044890;28;20512;-44
2022/04/03 07:55:10;;;;;;;3.45;1.20;;;5.60;99.90;;;;;;5052120;28;20155;-44
2022/04/03 07:57:38;;;;;;;8.55;1.98;;;5.80;99.90;;;;;;5051191;28;20049;-44
2022/04/03 08:00:08;;;;;;;4.88;1.45;;;5.90;99.90;;;;;;5051810;28;20071;-44
2022/04/03 08:02:35;;;;;;;6.82;1.40;;;6.00;99.90;;;;;;5045412;28;20401;-44
2022/04/03 08:05:01;;;;;;;7.50;1.27;;;6.20;99.90;;;;;;5042343;28;20582;-44
2022/04/03 08:07:35;;;;;;;3.58;1.20;;;6.30;99.90;;;;;;5045188;28;20044;-44
2022/04/03 08:10:02;;;;;;;3.58;1.40;;;6.50;99.90;;;;;;5041838;28;20057;-45
2022/04/03 08:12:28;;;;;;;7.07;1.33;;;6.60;99.90;;;;;;5041926;28;20049;-44
2022/04/03 08:14:55;;;;;;;5.18;1.25;;;6.80;99.90;;;;;;5044648;28;20045;-44
2022/04/03 08:17:23;;;;;;;7.13;1.35;;;6.90;99.90;;;;;;5042854;28;20061;-44
2022/04/03 08:19:50;;;;;;;6.22;1.20;;;7.10;99.90;;;;;;5050086;28;20053;-44
2022/04/03 08:22:16;;;;;;;4.28;1.15;;;7.20;99.90;;;;;;5042926;28;20053;-44
2022/04/03 08:24:43;;;;;;;4.60;1.33;;;7.40;99.50;;;;;;5052218;28;20508;-44
2022/04/03 08:27:12;;;;;;;4.68;1.10;;;7.60;99.40;;;;;;5042338;28;20046;-45
2022/04/03 08:29:39;;;;;;;6.78;1.30;;;7.70;99.00;;;;;;5036089;28;20055;-43
2022/04/03 08:32:06;;;;;;;3.70;0.95;;;7.70;98.70;;;;;;5041044;28;20124;-44
2022/04/03 08:34:34;;;;;;;2.67;0.77;;;7.70;98.70;;;;;;5040673;28;20110;-44
2022/04/03 08:37:00;;;;;;;5.45;1.15;;;7.70;98.80;;;;;;5052366;28;20041;-44
2022/04/03 08:39:27;;;;;;;2.40;1.10;;;7.60;98.70;;;;;;5049434;28;20350;-44
2022/04/03 08:41:54;;;;;;;4.65;1.20;;;7.60;98.80;;;;;;5037513;28;20055;-45
2022/04/03 08:44:21;;;;;;;3.70;1.20;;;7.70;99.20;;;;;;5043360;28;20413;-44
2022/04/03 08:46:48;;;;;;;3.17;1.20;;;7.90;98.60;;;;;;5050995;28;20049;-44
2022/04/03 08:49:15;;;;;;;6.45;1.20;;;7.90;98.30;;;;;;5052085;28;20147;-44
2022/04/03 08:51:43;;;;;;;3.60;1.13;;;8.00;97.90;;;;;;5051957;28;20456;-44
2022/04/03 08:54:09;;;;;;;8.32;0.90;;;8.30;97.70;;;;;;5050863;28;20063;-44
2022/04/03 08:56:36;;;;;;;4.32;0.95;;;8.30;97.50;;;;;;5052457;28;20075;-44
2022/04/03 08:59:03;;;;;;;5.25;1.10;;;8.50;97.60;;;;;;5049915;28;20053;-44
2022/04/03 09:01:30;;;;;;;5.28;1.10;;;8.70;97.10;;;;;;5046640;28;20048;-44
2022/04/03 09:03:56;;;;;;;5.30;1.20;;;8.80;96.80;;;;;;5032362;28;20076;-44
2022/04/03 09:06:23;;;;;;;6.40;1.40;;;8.80;95.80;;;;;;5031141;28;20049;-44
2022/04/03 09:08:51;;;;;;;5.97;1.10;;;8.70;95.50;;;;;;5031132;28;20049;-43
2022/04/03 09:11:18;;;;;;;4.05;0.90;;;8.70;95.40;;;;;;5045706;28;20131;-44
2022/04/03 09:13:45;;;;;;;5.70;1.05;;;8.80;95.60;;;;;;5044913;28;20048;-44
2022/04/03 09:16:12;;;;;;;4.18;0.90;;;8.80;94.90;;;;;;5048861;28;20408;-45
2022/04/03 09:18:43;;;;;;;3.03;0.95;;;8.80;95.10;;;;;;5052020;28;20057;-45
2022/04/03 09:21:18;;;;;;;2.90;0.75;;;9.00;94.70;;;;;;5050585;28;20145;-44
2022/04/03 09:24:03;;;;;;;5.07;1.10;;;9.10;94.60;;;;;;5054089;28;20048;-44
2022/04/03 09:26:30;;;;;;;5.28;1.08;;;9.30;93.60;;;;;;5052182;28;20063;-44
2022/04/03 09:29:09;;;;;;;2.85;0.75;;;9.30;93.70;;;;;;5046194;28;20471;-44
2022/04/03 09:31:36;;;;;;;4.40;0.98;;;9.20;92.50;;;;;;5041087;28;20057;-44
2022/04/03 09:34:03;;;;;;;3.20;0.77;;;9.20;92.60;;;;;;5040173;28;20057;-44
2022/04/03 09:36:31;;;;;;;4.60;1.08;;;9.30;92.20;;;;;;5049515;28;20053;-43
2022/04/03 09:39:19;;;;;;;4.47;1.10;;;9.50;91.50;;;;;;5052101;28;20497;-44
2022/04/03 09:42:00;;;;;;;3.88;0.63;;;9.70;91.60;;;;;;5054586;28;20211;-44
2022/04/03 09:44:27;;;;;;;0.90;0.50;;;9.90;88.60;;;;;;5043621;28;20094;-44
2022/04/03 09:47:14;;;;;;;2.05;0.50;;;9.80;88.40;;;;;;5040514;28;20081;-43
2022/04/03 09:49:41;;;;;;;5.60;0.80;;;9.70;84.70;;;;;;5036679;28;20051;-44
2022/04/03 09:52:09;;;;;;;8.07;0.80;;;9.40;87.00;;;;;;5048858;28;20049;-43
2022/04/03 09:54:38;;;;;;;7.22;1.10;;;9.20;88.80;;;;;;5053644;28;20068;-43
2022/04/03 09:57:18;;;;;;;2.50;0.70;;;8.90;90.10;;;;;;5055061;28;20041;-44
2022/04/03 09:59:49;;;;;;;2.15;0.70;;;8.70;91.20;;;;;;5053145;28;20049;-44
2022/04/03 10:02:16;;;;;;;2.42;0.90;;;8.50;91.80;;;;;;5052322;28;20132;-43
2022/04/03 10:04:43;;;;;;;4.63;0.98;;;8.30;92.60;;;;;;5047500;28;20063;-44
2022/04/03 10:07:12;;;;;;;6.43;1.45;;;8.20;93.20;;;;;;5039421;28;20104;-44
2022/04/03 10:09:43;;;;;;;4.22;1.05;;;8.20;93.70;;;;;;5052773;28;20053;-44
2022/04/03 10:12:10;;;;;;;1.85;1.00;;;8.10;94.10;;;;;;5044788;28;20132;-43
2022/04/03 10:14:37;;;;;;;4.30;0.95;;;8.10;94.30;;;;;;5052097;28;20053;-42
2022/04/03 10:17:04;;;;;;;3.92;0.77;;;8.00;94.30;;;;;;5043481;28;20444;-41
2022/04/03 10:19:31;;;;;;;3.45;0.80;;;8.00;94.10;;;;;;5049435;28;20563;-42
2022/04/03 10:21:58;;;;;;;5.00;1.15;;;8.00;93.70;;;;;;5049235;28;20080;-42
2022/04/03 10:24:24;;;;;;;2.28;0.80;;;7.90;93.20;;;;;;5047857;28;20051;-39
2022/04/03 10:26:57;;;;;;;3.03;0.75;;;7.80;93.40;;;;;;5049663;28;20053;-42
2022/04/03 10:29:24;;;;;;;4.10;0.90;;;7.80;93.90;;;;;;5034473;28;20049;-40
2022/04/03 10:31:58;;;;;;;4.57;0.98;;;7.80;94.00;;;;;;5048998;28;20120;-39
2022/04/03 10:34:26;;;;;;;4.78;1.25;;;7.80;93.80;;;;;;5050921;28;20055;-42
2022/04/03 10:36:52;;;;;;;3.15;0.75;;;7.70;93.70;;;;;;5034399;28;20045;-40
2022/04/03 10:39:23;;;;;;;2.22;0.80;;;7.80;93.70;;;;;;5050182;28;20053;-43
2022/04/03 10:41:49;;;;;;;4.00;0.90;;;7.80;93.50;;;;;;5046358;28;20059;-41
2022/04/03 10:44:19;;;;;;;4.93;1.00;;;7.80;93.80;;;;;;5053401;28;20057;-43
2022/04/03 10:47:21;;;;;;;3.30;0.82;;;7.80;93.50;;;;;;5034480;28;20386;-41
2022/04/03 10:49:48;;;;;;;;;;;7.80;93.70;;;;;;5048191;28;20056;-43
2022/04/03 10:52:24;;;;;;;2.58;0.90;;;7.80;94.40;;;;;;5055001;28;19931;-42
2022/04/03 10:54:52;;;;;;;1.50;0.85;;;8.10;94.70;;;;;;5054953;28;20061;-42
2022/04/03 10:57:34;;;;;;;2.13;0.60;;;8.50;94.80;;;;;;5044108;28;20050;-39
2022/04/03 11:00:37;;;;;;;1.40;0.60;;;8.90;92.30;;;;;;5055532;28;20128;-41
2022/04/03 11:03:35;;;;;;;4.45;0.60;;;9.20;92.20;;;;;;5060912;28;20053;-43
2022/04/03 11:06:36;;;;;;;4.05;1.00;;;9.60;92.00;;;;;;5060222;28;20569;-43
2022/04/03 11:09:13;;;;;;;3.20;0.60;;;10.00;91.30;;;;;;5049836;28;20053;-44
2022/04/03 11:11:45;;;;;;;1.92;0.70;;;10.30;90.60;;;;;;5039171;28;20083;-44
2022/04/03 11:14:12;;;;;;;0.90;0.43;;;10.40;90.30;;;;;;5047490;28;20049;-44
2022/04/03 11:16:53;;;;;;;2.55;0.45;;;10.40;88.90;;;;;;5044825;28;20460;-44
2022/04/03 11:19:34;;;;;;;5.87;0.50;;;10.40;87.70;;;;;;5052565;28;20412;-44
2022/04/03 11:22:01;;;;;;;6.85;0.68;;;10.40;87.40;;;;;;5042615;28;20048;-44
2022/04/03 11:24:28;;;;;;;2.65;0.63;;;10.40;86.60;;;;;;5052216;28;20061;-44
2022/04/03 11:26:55;;;;;;;1.83;0.80;;;10.40;85.50;;;;;;5051980;28;20409;-44
2022/04/03 11:29:21;;;;;;;2.25;0.65;;;10.20;84.60;;;;;;5052453;28;20055;-44
2022/04/03 11:31:48;;;;;;;4.47;1.58;;;10.20;85.70;;;;;;5047261;28;20060;-44
2022/04/03 11:34:16;;;;;;;4.20;0.90;;;10.10;85.70;;;;;;5050128;28;20051;-44
2022/04/03 11:36:43;;;;;;;4.25;1.00;;;10.00;85.50;;;;;;5055678;28;20139;-44
2022/04/03 11:39:10;;;;;;;2.85;0.70;;;9.80;86.30;;;;;;5052504;28;20124;-44
2022/04/03 11:41:37;;;;;;;4.93;0.85;;;9.80;86.90;;;;;;5054550;28;20057;-44
2022/04/03 11:44:04;;;;;;;3.50;0.95;;;9.70;87.50;;;;;;5050970;28;20067;-44
2022/04/03 11:46:32;;;;;;;3.38;0.80;;;9.60;86.80;;;;;;5051295;28;20051;-44
2022/04/03 11:48:59;;;;;;;4.00;0.90;;;9.60;87.40;;;;;;5051648;28;20489;-44
2022/04/03 11:51:27;;;;;;;3.67;0.70;;;9.60;87.70;;;;;;5051281;28;20048;-44
2022/04/03 11:53:58;;;;;;;2.05;0.60;;;9.60;86.80;;;;;;5052108;28;20135;-44
2022/04/03 11:56:25;;;;;;;5.15;0.80;;;9.50;88.20;;;;;;5050634;28;20045;-44
2022/04/03 11:58:57;;;;;;;3.08;0.98;;;9.50;87.70;;;;;;5050938;28;20045;-44
2022/04/03 12:01:25;;;;;;;4.20;1.08;;;9.50;88.00;;;;;;5050228;28;20049;-44
2022/04/03 12:03:59;;;;;;;3.22;1.10;;;9.30;89.00;;;;;;5052009;28;20052;-44
2022/04/03 12:06:27;;;;;;;2.80;1.35;;;9.10;89.90;;;;;;5045828;28;20045;-44
2022/04/03 12:08:54;;;;;;;3.13;1.00;;;8.90;90.30;;;;;;5044414;28;20527;-44
2022/04/03 12:11:25;;;;;;;1.58;0.60;;;8.70;90.60;;;;;;5042881;28;20049;-44
2022/04/03 12:13:53;;;;;;;5.30;1.10;;;8.50;91.20;;;;;;5039076;28;20056;-43
2022/04/03 12:16:21;;;;;;;3.65;1.00;;;8.40;91.60;;;;;;5051772;28;20044;-43
2022/04/03 12:18:50;;;;;;;1.70;0.70;;;8.40;92.20;;;;;;5047728;28;20053;-44
2022/04/03 12:21:17;;;;;;;2.13;0.90;;;8.40;92.50;;;;;;5050038;28;20407;-43
2022/04/03 12:24:04;;;;;;;4.65;1.30;;;8.40;92.70;;;;;;5050538;28;20476;-43
2022/04/03 12:26:31;;;;;;;3.38;1.10;;;8.40;92.50;;;;;;5052125;28;20044;-44
2022/04/03 12:28:57;;;;;;;3.45;1.00;;;8.40;92.70;;;;;;5052137;28;20480;-43
2022/04/03 12:31:28;;;;;;;3.60;0.93;;;8.40;92.90;;;;;;5043274;28;20053;-43
2022/04/03 12:34:05;;;;;;;2.65;0.60;;;8.50;92.90;;;;;;5051186;28;20060;-43
2022/04/03 12:36:40;;;;;;;1.40;0.70;;;8.50;92.70;;;;;;5044014;28;20048;-43
2022/04/03 12:39:27;;;;;;;3.33;0.85;;;8.60;92.30;;;;;;5045830;28;20063;-43
2022/04/03 12:41:54;;;;;;;5.00;1.13;;;8.50;92.10;;;;;;5051407;28;20128;-43
2022/04/03 12:44:21;;;;;;;1.63;0.70;;;8.40;91.90;;;;;;5052019;28;20041;-43
2022/04/03 12:46:48;;;;;;;3.97;0.90;;;8.40;91.60;;;;;;5044980;28;20423;-43
2022/04/03 12:49:16;;;;;;;2.85;0.63;;;8.40;91.60;;;;;;5045335;28;20412;-44
2022/04/03 12:51:46;;;;;;;2.05;0.63;;;8.40;91.60;;;;;;5051879;28;20095;-44
2022/04/03 12:54:14;;;;;;;1.42;0.60;;;8.50;91.10;;;;;;5048724;28;20805;-44
2022/04/03 12:59:45;;;;;;;2.88;0.60;;;8.50;90.80;;;;;;5012880;28;20050;-44
2022/04/03 13:02:11;;;;;;;1.70;0.70;;;8.60;90.60;;;;;;5043905;28;20056;-44